createdAt,value
2017-12-04T00:02:19.003Z,63.10
2017-12-04T00:04:47.261Z,63.00
2017-12-04T00:07:14.779Z,63.00
2017-12-04T00:09:42.306Z,63.20
2017-12-04T00:12:10.579Z,63.00
2017-12-04T00:14:38.080Z,63.70
2017-12-04T00:17:05.576Z,63.10
2017-12-04T00:19:33.837Z,63.10
2017-12-04T00:22:01.351Z,63.00
2017-12-04T00:24:28.851Z,63.40
2017-12-04T00:26:56.462Z,63.60
2017-12-04T00:29:23.972Z,63.70
2017-12-04T00:31:51.467Z,63.70
2017-12-04T00:34:18.986Z,64.00
2017-12-04T00:36:46.483Z,64.50
2017-12-04T00:39:13.984Z,64.30
2017-12-04T00:41:41.490Z,64.50
2017-12-04T00:44:09.755Z,64.30
2017-12-04T00:46:38.044Z,64.80
2017-12-04T00:49:06.309Z,65.00
2017-12-04T00:51:34.576Z,65.20
2017-12-04T00:54:03.584Z,65.50
2017-12-04T00:56:32.063Z,65.60
2017-12-04T00:59:00.329Z,65.80
2017-12-04T01:01:28.592Z,66.20
2017-12-04T01:03:57.595Z,65.30
2017-12-04T01:06:25.883Z,65.30
2017-12-04T01:08:54.155Z,65.70
2017-12-04T01:11:22.438Z,65.60
2017-12-04T01:13:50.103Z,65.60
2017-12-04T01:16:18.367Z,66.20
2017-12-04T01:18:45.867Z,66.20
2017-12-04T01:21:13.363Z,66.90
2017-12-04T01:23:40.859Z,66.20
2017-12-04T01:26:09.115Z,66.40
2017-12-04T01:28:36.613Z,66.40
2017-12-04T01:31:04.122Z,66.20
2017-12-04T01:33:32.399Z,66.90
2017-12-04T01:35:59.912Z,66.10
2017-12-04T01:38:27.419Z,66.20
2017-12-04T01:40:54.931Z,66.40
2017-12-04T01:43:22.439Z,67.00
2017-12-04T01:45:49.945Z,67.40
2017-12-04T01:48:17.446Z,66.60
2017-12-04T01:50:44.955Z,67.50
2017-12-04T01:53:12.460Z,67.30
2017-12-04T01:55:39.959Z,67.30
2017-12-04T01:58:07.476Z,67.70
2017-12-04T02:00:34.972Z,67.70
2017-12-04T02:03:03.357Z,68.40
2017-12-04T02:05:30.875Z,68.40
2017-12-04T02:07:58.403Z,68.60
2017-12-04T02:10:25.900Z,68.20
2017-12-04T02:12:53.401Z,68.30
2017-12-04T02:15:20.915Z,68.80
2017-12-04T02:17:48.426Z,68.40
2017-12-04T02:20:15.923Z,68.70
2017-12-04T02:22:43.419Z,69.30
2017-12-04T02:25:11.729Z,69.60
2017-12-04T02:27:39.204Z,69.60
2017-12-04T02:30:06.718Z,70.30
2017-12-04T02:32:34.256Z,70.00
2017-12-04T02:35:02.517Z,70.20
2017-12-04T02:37:30.031Z,70.20
2017-12-04T02:39:57.543Z,70.00
2017-12-04T02:42:25.807Z,70.50
2017-12-04T02:44:53.327Z,71.30
2017-12-04T02:47:20.831Z,70.90
2017-12-04T02:49:48.336Z,71.30
2017-12-04T02:52:15.851Z,71.60
2017-12-04T02:54:44.124Z,70.70
2017-12-04T02:57:11.627Z,70.70
2017-12-04T02:59:39.126Z,70.60
2017-12-04T03:02:06.651Z,70.90
2017-12-04T03:04:34.151Z,71.30
2017-12-04T03:07:01.675Z,71.50
2017-12-04T03:09:29.184Z,71.80
2017-12-04T03:11:57.442Z,72.30
2017-12-04T03:14:24.939Z,72.30
2017-12-04T03:16:52.443Z,71.90
2017-12-04T03:19:19.944Z,71.80
2017-12-04T03:21:48.223Z,72.20
2017-12-04T03:24:16.492Z,72.60
2017-12-04T03:26:44.748Z,73.90
2017-12-04T03:29:12.255Z,72.90
2017-12-04T03:31:39.776Z,72.90
2017-12-04T03:34:07.267Z,73.00
2017-12-04T03:36:34.759Z,73.20
2017-12-04T03:39:02.253Z,73.00
2017-12-04T03:41:30.527Z,73.40
2017-12-04T03:43:58.783Z,73.50
2017-12-04T03:46:26.277Z,73.50
2017-12-04T03:48:54.556Z,74.00
2017-12-04T03:51:22.932Z,74.00
2017-12-04T03:53:51.188Z,74.20
2017-12-04T03:56:18.692Z,74.20
2017-12-04T03:58:46.188Z,75.10
2017-12-04T04:01:13.699Z,75.40
2017-12-04T04:03:41.204Z,75.10
2017-12-04T04:06:08.696Z,74.80
2017-12-04T04:08:36.951Z,75.30
2017-12-04T04:11:04.563Z,75.30
2017-12-04T04:13:32.067Z,74.40
2017-12-04T04:15:59.560Z,75.50
2017-12-04T04:18:27.172Z,76.00
2017-12-04T04:20:54.672Z,76.00
2017-12-04T04:23:22.931Z,76.50
2017-12-04T04:25:51.195Z,76.90
2017-12-04T04:28:18.703Z,76.90
2017-12-04T04:30:46.199Z,77.10
2017-12-04T04:33:13.718Z,78.10
2017-12-04T04:35:41.215Z,78.10
2017-12-04T04:38:08.711Z,79.80
2017-12-04T04:40:36.992Z,81.40
2017-12-04T04:43:05.276Z,81.30
2017-12-04T04:45:32.927Z,81.30
2017-12-04T04:48:00.445Z,80.90
2017-12-04T04:50:27.936Z,80.60
2017-12-04T04:52:56.199Z,79.90
2017-12-04T04:55:23.716Z,79.90
2017-12-04T04:57:51.209Z,79.30
2017-12-04T05:00:18.703Z,79.90
2017-12-04T05:02:46.196Z,80.20
2017-12-04T05:05:13.706Z,79.50
2017-12-04T05:07:41.969Z,79.00
2017-12-04T05:10:09.459Z,79.00
2017-12-04T05:12:36.961Z,79.10
2017-12-04T05:15:04.460Z,78.90
2017-12-04T05:17:32.723Z,78.70
2017-12-04T05:20:00.991Z,78.80
2017-12-04T05:22:28.668Z,78.70
2017-12-04T05:24:56.950Z,78.80
2017-12-04T05:27:25.207Z,78.20
2017-12-04T05:29:52.707Z,78.20
2017-12-04T05:32:20.203Z,78.40
2017-12-04T05:34:47.694Z,78.10
2017-12-04T05:37:15.963Z,77.40
2017-12-04T05:39:43.504Z,77.30
2017-12-04T05:42:10.995Z,77.40
2017-12-04T05:44:39.252Z,77.80
2017-12-04T05:47:06.752Z,77.80
2017-12-04T05:49:34.266Z,78.20
2017-12-04T05:52:01.760Z,77.70
2017-12-04T05:54:29.400Z,77.50
2017-12-04T05:56:57.664Z,77.40
2017-12-04T05:59:25.156Z,77.40
2017-12-04T06:01:52.659Z,77.20
2017-12-04T06:04:20.152Z,77.90
2017-12-04T06:06:48.407Z,77.20
2017-12-04T06:09:16.679Z,77.20
2017-12-04T06:11:44.295Z,77.20
2017-12-04T06:14:11.924Z,77.10
2017-12-04T06:16:40.196Z,78.60
2017-12-04T06:19:08.471Z,77.30
2017-12-04T06:21:36.735Z,77.70
2017-12-04T06:24:04.244Z,77.60
2017-12-04T06:26:31.756Z,77.90
2017-12-04T06:28:59.254Z,77.70
2017-12-04T06:31:26.891Z,78.00
2017-12-04T06:33:55.155Z,79.60
2017-12-04T06:36:23.432Z,79.50
2017-12-04T06:38:50.925Z,79.50
2017-12-04T06:41:18.439Z,79.30
2017-12-04T06:43:46.831Z,78.50
2017-12-04T06:46:15.103Z,76.80
2017-12-04T06:48:42.600Z,76.80
2017-12-04T06:51:10.096Z,76.90
2017-12-04T06:53:37.600Z,76.20
2017-12-04T06:56:05.876Z,76.40
2017-12-04T06:58:34.155Z,75.60
2017-12-04T07:01:01.668Z,75.60
2017-12-04T07:03:29.359Z,75.90
2017-12-04T07:05:57.623Z,76.40
2017-12-04T07:08:25.240Z,76.30
2017-12-04T07:10:52.735Z,75.80
2017-12-04T07:13:20.995Z,75.40
2017-12-04T07:15:48.499Z,75.40
2017-12-04T07:18:16.759Z,74.50
2017-12-04T07:20:45.023Z,75.50
2017-12-04T07:23:12.529Z,74.60
2017-12-04T07:25:40.044Z,74.70
2017-12-04T07:28:08.326Z,74.50
2017-12-04T07:30:35.820Z,74.50
2017-12-04T07:33:03.322Z,74.80
2017-12-04T07:35:31.019Z,74.60
2017-12-04T07:37:59.296Z,74.90
2017-12-04T07:40:27.560Z,74.80
2017-12-04T07:42:55.055Z,74.80
2017-12-04T07:45:22.576Z,74.90
2017-12-04T07:47:50.984Z,74.30
2017-12-04T07:50:18.483Z,74.20
2017-12-04T07:52:45.976Z,74.50
2017-12-04T07:55:14.263Z,75.00
2017-12-04T07:57:42.529Z,74.70
2017-12-04T08:00:10.792Z,74.90
2017-12-04T08:02:39.814Z,74.50
2017-12-04T08:05:07.316Z,74.50
2017-12-04T08:07:34.927Z,74.40
2017-12-04T08:10:03.192Z,74.40
2017-12-04T08:12:31.463Z,74.00
2017-12-04T08:14:58.963Z,73.80
2017-12-04T08:17:26.471Z,74.60
2017-12-04T08:19:54.738Z,73.60
2017-12-04T08:22:23.127Z,73.60
2017-12-04T08:24:50.616Z,73.60
2017-12-04T08:27:18.876Z,73.60
2017-12-04T08:29:47.148Z,73.70
2017-12-04T08:32:14.667Z,73.70
2017-12-04T08:34:42.156Z,73.30
2017-12-04T08:37:09.835Z,72.50
2017-12-04T08:39:38.100Z,73.10
2017-12-04T08:42:05.614Z,73.00
2017-12-04T08:44:33.119Z,73.30
2017-12-04T08:47:00.607Z,73.20
2017-12-04T08:49:28.256Z,73.80
2017-12-04T08:51:56.535Z,74.40
2017-12-04T08:54:24.792Z,74.30
2017-12-04T08:56:53.063Z,74.90
2017-12-04T08:59:20.559Z,74.10
2017-12-04T09:01:48.067Z,74.60
2017-12-04T09:04:15.559Z,75.20
2017-12-04T09:06:43.819Z,73.60
2017-12-04T09:09:11.314Z,73.60
2017-12-04T09:11:38.808Z,72.40
2017-12-04T09:14:06.308Z,73.50
2017-12-04T09:16:34.571Z,74.00
2017-12-04T09:19:02.855Z,74.10
2017-12-04T09:21:31.127Z,74.30
2017-12-04T09:23:59.383Z,74.00
2017-12-04T09:26:26.883Z,74.10
2017-12-04T09:28:54.375Z,74.20
2017-12-04T09:31:21.871Z,73.80
2017-12-04T09:33:49.364Z,73.80
2017-12-04T09:36:16.864Z,73.60
2017-12-04T09:38:44.373Z,73.70
2017-12-04T09:41:11.893Z,73.30
2017-12-04T09:43:39.385Z,73.00
2017-12-04T09:46:07.642Z,72.70
2017-12-04T09:48:35.911Z,72.80
2017-12-04T09:51:03.427Z,72.80
2017-12-04T09:53:30.920Z,72.80
2017-12-04T09:55:58.416Z,72.80
2017-12-04T09:58:25.932Z,73.40
2017-12-04T10:00:53.436Z,73.60
2017-12-04T10:03:20.952Z,74.00
2017-12-04T10:05:48.453Z,73.70
2017-12-04T10:08:15.963Z,73.50
2017-12-04T10:10:43.478Z,72.60
2017-12-04T10:13:11.004Z,72.10
2017-12-04T10:15:39.527Z,72.20
2017-12-04T10:18:07.045Z,72.10
2017-12-04T10:20:35.313Z,72.20
2017-12-04T10:23:02.829Z,72.20
2017-12-04T10:25:30.339Z,71.90
2017-12-04T10:27:58.607Z,73.10
2017-12-04T10:30:26.291Z,73.10
2017-12-04T10:32:54.567Z,72.90
2017-12-04T10:35:22.827Z,72.70
2017-12-04T10:37:51.104Z,71.90
2017-12-04T10:40:19.371Z,71.90
2017-12-04T10:42:46.864Z,71.90
2017-12-04T10:45:14.389Z,71.70
2017-12-04T10:47:41.892Z,71.60
2017-12-04T10:50:09.395Z,72.00
2017-12-04T10:52:36.909Z,72.00
2017-12-04T10:55:04.457Z,71.80
2017-12-04T10:57:31.946Z,71.90
2017-12-04T10:59:59.453Z,72.70
2017-12-04T11:02:27.723Z,72.90
2017-12-04T11:04:56.001Z,73.00
2017-12-04T11:07:24.265Z,73.10
2017-12-04T11:09:51.863Z,73.00
2017-12-04T11:12:19.499Z,73.40
2017-12-04T11:14:47.760Z,73.10
2017-12-04T11:17:15.252Z,73.10
2017-12-04T11:19:42.760Z,73.20
2017-12-04T11:22:10.276Z,72.50
2017-12-04T11:24:37.772Z,72.70
2017-12-04T11:27:05.259Z,73.80
2017-12-04T11:29:32.787Z,72.90
2017-12-04T11:32:00.283Z,72.90
2017-12-04T11:34:28.544Z,73.70
2017-12-04T11:36:56.059Z,74.50
2017-12-04T11:39:23.591Z,74.10
2017-12-04T11:41:51.858Z,74.30
2017-12-04T11:44:20.127Z,74.00
2017-12-04T11:46:48.410Z,74.70
2017-12-04T11:49:16.691Z,74.40
2017-12-04T11:51:44.951Z,74.00
2017-12-04T11:54:12.743Z,74.00
2017-12-04T11:56:40.251Z,74.10
2017-12-04T11:59:07.765Z,75.30
2017-12-04T12:01:35.272Z,75.00
2017-12-04T12:04:02.807Z,75.00
2017-12-04T12:06:30.299Z,74.40
2017-12-04T12:08:57.791Z,74.30
2017-12-04T12:11:25.483Z,73.70
2017-12-04T12:13:52.979Z,74.10
2017-12-04T12:16:21.244Z,73.40
2017-12-04T12:18:48.754Z,73.40
2017-12-04T12:21:16.243Z,73.70
2017-12-04T12:23:43.731Z,74.20
2017-12-04T12:26:11.224Z,74.30
2017-12-04T12:28:38.731Z,74.20
2017-12-04T12:31:06.245Z,74.00
2017-12-04T12:33:33.768Z,73.80
2017-12-04T12:36:01.262Z,73.80
2017-12-04T12:38:28.760Z,73.90
2017-12-04T12:40:56.252Z,74.20
2017-12-04T12:43:24.511Z,73.20
2017-12-04T12:45:52.003Z,73.20
2017-12-04T12:48:20.280Z,72.10
2017-12-04T12:50:48.551Z,72.30
2017-12-04T12:53:16.815Z,72.70
2017-12-04T12:55:45.083Z,72.70
2017-12-04T12:58:12.591Z,72.70
2017-12-04T13:00:40.095Z,72.70
2017-12-04T13:03:07.591Z,72.20
2017-12-04T13:05:35.089Z,72.00
2017-12-04T13:08:02.576Z,73.00
2017-12-04T13:10:30.863Z,72.20
2017-12-04T13:12:59.124Z,72.90
2017-12-04T13:15:26.635Z,72.90
2017-12-04T13:17:54.261Z,73.10
2017-12-04T13:20:22.515Z,73.20
2017-12-04T13:22:50.013Z,73.20
2017-12-04T13:25:17.511Z,73.70
2017-12-04T13:27:45.004Z,73.50
2017-12-04T13:30:13.297Z,74.70
2017-12-04T13:32:53.136Z,74.70
2017-12-04T13:35:33.396Z,74.30
2017-12-04T13:38:01.659Z,74.60
2017-12-04T13:40:29.949Z,75.20
2017-12-04T13:42:58.208Z,75.50
2017-12-04T13:45:25.727Z,75.40
2017-12-04T13:47:53.243Z,76.40
2017-12-04T13:50:21.515Z,76.20
2017-12-04T13:52:49.792Z,76.50
2017-12-04T13:55:18.439Z,76.20
2017-12-04T13:57:45.935Z,76.20
2017-12-04T14:00:14.199Z,76.80
2017-12-04T14:02:41.696Z,76.80
2017-12-04T14:05:09.195Z,77.40
2017-12-04T14:07:36.802Z,77.90
2017-12-04T14:10:04.295Z,78.10
2017-12-04T14:12:31.835Z,78.00
2017-12-04T14:14:59.351Z,78.30
2017-12-04T14:17:26.988Z,78.60
2017-12-04T14:19:54.496Z,78.90
2017-12-04T14:22:22.040Z,78.70
2017-12-04T14:24:50.303Z,79.00
2017-12-04T14:27:17.816Z,79.00
2017-12-04T14:29:45.324Z,79.00
2017-12-04T14:32:12.856Z,79.30
2017-12-04T14:34:40.351Z,81.00
2017-12-04T14:37:08.632Z,80.40
2017-12-04T14:39:36.903Z,80.20
2017-12-04T14:42:05.184Z,80.10
2017-12-04T14:44:33.443Z,80.10
2017-12-04T14:47:00.988Z,80.10
2017-12-04T14:49:28.571Z,80.40
2017-12-04T14:51:56.034Z,80.40
2017-12-04T14:54:24.296Z,80.40
2017-12-04T14:56:51.787Z,80.40
2017-12-04T14:59:19.276Z,80.30
2017-12-04T15:01:46.795Z,80.50
2017-12-04T15:04:15.058Z,80.60
2017-12-04T15:06:43.547Z,80.60
2017-12-04T15:09:11.824Z,80.80
2017-12-04T15:11:40.080Z,80.80
2017-12-04T15:14:08.360Z,81.00
2017-12-04T15:16:36.624Z,81.20
2017-12-04T15:19:04.115Z,81.10
2017-12-04T15:21:32.451Z,81.10
2017-12-04T15:23:59.939Z,81.10
2017-12-04T15:26:28.224Z,80.90
2017-12-04T15:28:56.483Z,81.00
2017-12-04T15:31:24.759Z,81.10
2017-12-04T15:33:52.252Z,81.10
2017-12-04T15:36:19.771Z,81.30
2017-12-04T15:38:48.039Z,81.00
2017-12-04T15:41:15.539Z,81.00
2017-12-04T15:43:43.032Z,81.20
2017-12-04T15:46:10.751Z,81.20
2017-12-04T15:48:39.003Z,81.50
2017-12-04T15:51:08.025Z,82.50
2017-12-04T15:53:35.525Z,81.70
2017-12-04T15:56:03.016Z,81.70
2017-12-04T15:58:30.514Z,81.80
2017-12-04T16:00:58.027Z,81.60
2017-12-04T16:03:25.521Z,81.50
2017-12-04T16:05:53.020Z,81.50
2017-12-04T16:08:20.520Z,81.30
2017-12-04T16:10:48.781Z,81.40
2017-12-04T16:13:16.284Z,81.40
2017-12-04T16:15:43.776Z,81.20
2017-12-04T16:18:11.284Z,81.40
2017-12-04T16:20:38.783Z,81.70
2017-12-04T16:23:06.276Z,82.10
2017-12-04T16:25:34.567Z,82.20
2017-12-04T16:28:02.826Z,81.90
2017-12-04T16:30:30.313Z,81.80
2017-12-04T16:32:57.804Z,81.80
2017-12-04T16:35:25.520Z,81.30
2017-12-04T16:37:53.772Z,81.20
2017-12-04T16:40:21.316Z,81.10
2017-12-04T16:42:48.839Z,81.30
2017-12-04T16:45:16.329Z,81.80
2017-12-04T16:47:43.841Z,81.50
2017-12-04T16:50:11.343Z,81.50
2017-12-04T16:52:38.857Z,81.50
2017-12-04T16:55:06.503Z,81.50
2017-12-04T16:57:34.784Z,81.50
2017-12-04T17:00:03.051Z,81.60
2017-12-04T17:02:31.330Z,81.70
2017-12-04T17:04:59.587Z,81.80
2017-12-04T17:07:27.079Z,81.80
2017-12-04T17:09:55.348Z,82.30
2017-12-04T17:12:23.626Z,82.20
2017-12-04T17:14:51.891Z,82.30
2017-12-04T17:17:20.163Z,82.00
2017-12-04T17:19:47.659Z,82.00
2017-12-04T17:22:15.304Z,81.70
2017-12-04T17:24:43.566Z,81.80
2017-12-04T17:27:11.839Z,81.60
2017-12-04T17:29:40.107Z,81.50
2017-12-04T17:32:07.607Z,81.50
2017-12-04T17:34:35.108Z,82.20
2017-12-04T17:37:02.604Z,81.80
2017-12-04T17:39:30.876Z,81.50
2017-12-04T17:41:59.135Z,81.80
2017-12-04T17:44:26.665Z,81.80
2017-12-04T17:46:54.161Z,82.50
2017-12-04T17:49:22.435Z,82.00
2017-12-04T17:51:50.706Z,82.20
2017-12-04T17:54:18.204Z,82.20
2017-12-04T17:56:45.696Z,82.80
2017-12-04T17:59:13.216Z,82.60
2017-12-04T18:01:40.723Z,82.90
2017-12-04T18:04:08.227Z,83.10
2017-12-04T18:06:35.731Z,83.20
2017-12-04T18:09:03.229Z,83.30
2017-12-04T18:11:31.488Z,84.40
2017-12-04T18:13:59.004Z,84.40
2017-12-04T18:16:26.504Z,84.30
2017-12-04T18:18:54.015Z,83.90
2017-12-04T18:21:21.523Z,83.60
2017-12-04T18:23:49.035Z,83.90
2017-12-04T18:26:16.528Z,85.00
2017-12-04T18:28:49.695Z,85.10
2017-12-04T18:31:17.215Z,85.10
2017-12-04T18:33:44.715Z,84.90
2017-12-04T18:36:12.232Z,85.00
2017-12-04T18:38:39.734Z,84.80
2017-12-04T18:41:07.254Z,84.90
2017-12-04T18:43:34.892Z,84.90
2017-12-04T18:46:03.161Z,85.30
2017-12-04T18:48:30.652Z,85.20
2017-12-04T18:50:58.156Z,84.60
2017-12-04T18:53:25.651Z,85.30
2017-12-04T18:55:53.917Z,86.60
2017-12-04T18:58:22.209Z,87.30
2017-12-04T19:00:50.488Z,86.80
2017-12-04T19:03:18.752Z,87.00
2017-12-04T19:05:47.020Z,86.70
2017-12-04T19:08:15.288Z,86.10
2017-12-04T19:10:42.783Z,86.10
2017-12-04T19:13:10.293Z,85.80
2017-12-04T19:15:37.792Z,85.80
2017-12-04T19:18:05.315Z,86.00
2017-12-04T19:20:33.031Z,86.60
2017-12-04T19:23:00.527Z,86.40
2017-12-04T19:25:28.055Z,86.50
2017-12-04T19:27:55.605Z,86.20
2017-12-04T19:30:23.112Z,86.60
2017-12-04T19:32:50.611Z,86.60
2017-12-04T19:35:18.112Z,86.60
2017-12-04T19:37:45.631Z,86.50
2017-12-04T19:40:13.136Z,86.30
2017-12-04T19:42:40.639Z,86.10
2017-12-04T19:45:08.900Z,84.90
2017-12-04T19:47:37.172Z,84.70
2017-12-04T19:50:05.443Z,84.90
2017-12-04T19:52:33.055Z,84.90
2017-12-04T19:55:01.312Z,84.80
2017-12-04T19:57:28.808Z,84.80
2017-12-04T19:59:56.307Z,85.10
2017-12-04T20:02:24.590Z,84.40
2017-12-04T20:04:52.863Z,83.60
2017-12-04T20:07:21.128Z,84.00
2017-12-04T20:09:49.399Z,83.60
2017-12-04T20:12:16.916Z,83.60
2017-12-04T20:14:44.411Z,83.10
2017-12-04T20:17:11.916Z,82.90
2017-12-04T20:19:39.435Z,83.00
2017-12-04T20:22:06.955Z,83.50
2017-12-04T20:24:34.456Z,83.90
2017-12-04T20:27:02.728Z,83.20
2017-12-04T20:29:30.286Z,83.20
2017-12-04T20:31:57.763Z,83.20
2017-12-04T20:34:26.028Z,82.70
2017-12-04T20:36:54.295Z,82.70
2017-12-04T20:39:21.829Z,82.50
2017-12-04T20:41:49.340Z,82.70
2017-12-04T20:44:17.599Z,81.80
2017-12-04T20:46:45.885Z,81.90
2017-12-04T20:49:14.148Z,81.50
2017-12-04T20:51:41.668Z,81.50
2017-12-04T20:54:09.160Z,81.30
2017-12-04T20:56:38.180Z,81.60
2017-12-04T20:59:06.455Z,81.90
2017-12-04T21:01:34.716Z,82.00
2017-12-04T21:04:02.987Z,81.70
2017-12-04T21:06:31.263Z,81.60
2017-12-04T21:09:10.551Z,81.60
2017-12-04T21:11:48.123Z,81.70
2017-12-04T21:14:27.469Z,81.80
2017-12-04T21:17:06.900Z,81.70
2017-12-04T21:19:34.404Z,82.80
2017-12-04T21:22:01.917Z,81.80
2017-12-04T21:24:29.411Z,81.70
2017-12-04T21:26:56.919Z,81.80
2017-12-04T21:29:25.201Z,81.30
2017-12-04T21:31:52.712Z,81.30
2017-12-04T21:34:20.231Z,81.50
2017-12-04T21:36:47.723Z,81.60
2017-12-04T21:39:15.229Z,81.70
2017-12-04T21:41:43.488Z,82.00
2017-12-04T21:44:11.763Z,82.60
2017-12-04T21:46:39.275Z,82.50
2017-12-04T21:49:06.772Z,82.80
2017-12-04T21:51:34.267Z,82.60
2017-12-04T21:54:01.769Z,82.70
2017-12-04T21:56:29.292Z,82.60
2017-12-04T21:58:56.802Z,82.80
2017-12-04T22:01:24.328Z,83.30
2017-12-04T22:03:51.835Z,83.50
2017-12-04T22:06:20.124Z,84.70
2017-12-04T22:08:48.384Z,85.00
2017-12-04T22:11:16.667Z,85.70
2017-12-04T22:13:44.938Z,85.90
2017-12-04T22:16:13.203Z,86.40
2017-12-04T22:18:41.488Z,86.90
2017-12-04T22:21:09.765Z,86.60
2017-12-04T22:23:38.028Z,87.50
2017-12-04T22:26:05.523Z,86.70
2017-12-04T22:28:33.167Z,86.50
2017-12-04T22:31:01.427Z,86.70
2017-12-04T22:33:28.932Z,86.70
2017-12-04T22:35:56.433Z,86.20
2017-12-04T22:38:23.925Z,86.00
2017-12-04T22:40:52.200Z,85.40
2017-12-04T22:43:20.452Z,85.20
2017-12-04T22:45:47.954Z,85.20
2017-12-04T22:48:15.451Z,85.00
2017-12-04T22:50:45.213Z,84.90
2017-12-04T22:53:12.724Z,85.00
2017-12-04T22:55:40.216Z,85.10
2017-12-04T22:58:08.484Z,84.70
2017-12-04T23:00:36.754Z,85.20
2017-12-04T23:03:04.248Z,85.20
2017-12-04T23:05:31.891Z,85.10
2017-12-04T23:08:00.175Z,85.10
2017-12-04T23:10:28.455Z,85.20
2017-12-04T23:12:55.951Z,85.20
2017-12-04T23:15:23.459Z,85.30
2017-12-04T23:17:51.727Z,85.50
2017-12-04T23:20:19.999Z,86.30
2017-12-04T23:22:48.279Z,86.80
2017-12-04T23:25:16.547Z,86.70
2017-12-04T23:27:44.044Z,86.70
2017-12-04T23:30:11.555Z,86.60
2017-12-04T23:32:39.168Z,86.30
2017-12-04T23:35:06.667Z,86.60
2017-12-04T23:37:34.184Z,87.00
2017-12-04T23:40:01.683Z,86.00
2017-12-04T23:42:29.220Z,85.90
2017-12-04T23:44:56.940Z,85.70
2017-12-04T23:47:25.217Z,85.50
2017-12-04T23:49:53.485Z,84.00
2017-12-04T23:52:21.756Z,83.80
2017-12-04T23:54:49.275Z,83.80
2017-12-04T23:57:16.771Z,83.60
2017-12-04T23:59:44.265Z,83.80
